Time;durP1;ratioP1;P1;durP2;ratioP2;P2;SDS_P1;SDS_P2;PMS_P1;PMS_P2;Temp;Humidity;BMP_temperature;BMP_pressure;BME280_temperature;BME280_humidity;BME280_pressure;Samples;Min_cycle;Max_cycle;Signal;HPM_P1;HPM_P2
2021/06/01 00:01:51;;;;;;;8.95;6.28;;;;;;;15.44;100.00;100736.84;4880989;29;20025;-73
2021/06/01 00:04:37;;;;;;;6.60;5.90;;;;;;;15.64;100.00;100738.72;4879647;29;20111;-73
2021/06/01 00:07:23;;;;;;;8.45;5.88;;;;;;;15.51;100.00;100734.84;4880831;29;20451;-73
2021/06/01 00:10:09;;;;;;;8.98;6.13;;;;;;;15.63;100.00;100734.38;4883629;29;20029;-74
2021/06/01 00:12:55;;;;;;;9.18;6.10;;;;;;;15.42;100.00;100736.03;4884640;29;20025;-73
2021/06/01 00:15:41;;;;;;;9.27;6.45;;;;;;;15.83;100.00;100729.19;4883281;29;20060;-73
2021/06/01 00:18:27;;;;;;;9.70;6.70;;;;;;;15.75;100.00;100726.81;4884396;29;20053;-73
2021/06/01 00:21:13;;;;;;;11.48;7.43;;;;;;;15.39;100.00;100737.94;4883196;29;20119;-73
2021/06/01 00:23:58;;;;;;;8.40;6.70;;;;;;;15.00;100.00;100732.28;4884472;29;20032;-74
2021/06/01 00:26:44;;;;;;;9.82;6.35;;;;;;;15.24;100.00;100734.03;4895891;29;20044;-75
2021/06/01 00:29:31;;;;;;;9.43;6.40;;;;;;;15.24;100.00;100730.53;4884941;29;20044;-74
2021/06/01 00:32:17;;;;;;;7.95;6.30;;;;;;;15.38;100.00;100723.84;4896154;29;20029;-73
2021/06/01 00:35:03;;;;;;;11.00;6.50;;;;;;;15.50;100.00;100717.25;4886477;29;20092;-73
2021/06/01 00:37:49;;;;;;;7.53;6.13;;;;;;;15.84;100.00;100710.66;4901807;29;20456;-72
2021/06/01 00:40:34;;;;;;;11.10;6.43;;;;;;;15.57;100.00;100716.97;4889383;29;20043;-73
2021/06/01 00:43:20;;;;;;;12.32;7.05;;;;;;;15.51;100.00;100711.06;4883922;29;20032;-74
2021/06/01 00:46:06;;;;;;;10.60;6.70;;;;;;;15.70;100.00;100712.06;4887170;29;20029;-73
2021/06/01 00:48:52;;;;;;;13.45;7.63;;;;;;;15.54;100.00;100713.56;4889521;29;20039;-73
2021/06/01 00:51:38;;;;;;;16.10;7.18;;;;;;;15.62;100.00;100715.00;4898581;29;20482;-73
2021/06/01 00:54:23;;;;;;;10.85;6.80;;;;;;;15.72;100.00;100719.03;4897389;29;20053;-74
2021/06/01 00:57:09;;;;;;;12.10;7.18;;;;;;;15.71;100.00;100719.94;4883260;29;20033;-74
2021/06/01 00:59:55;;;;;;;12.32;6.78;;;;;;;15.70;100.00;100718.22;4895894;29;20040;-74
2021/06/01 01:02:41;;;;;;;9.95;6.95;;;;;;;15.54;100.00;100711.81;4895520;29;20029;-74
2021/06/01 01:05:33;;;;;;;12.35;6.68;;;;;;;15.58;100.00;100723.09;4883894;29;20123;-74
2021/06/01 01:11:25;;;;;;;13.82;7.10;;;;;;;15.57;100.00;100716.97;4884038;29;20039;-74
2021/06/01 01:14:15;;;;;;;11.25;6.38;;;;;;;15.32;100.00;100717.91;4882621;29;20036;-75
2021/06/01 01:17:24;;;;;;;11.40;6.63;;;;;;;15.15;100.00;100718.50;4883604;29;20060;-73
2021/06/01 01:20:22;;;;;;;12.75;5.93;;;;;;;15.39;100.00;100722.09;4882943;29;20045;-74
2021/06/01 01:23:14;;;;;;;13.63;5.60;;;;;;;15.39;100.00;100715.00;4883278;29;20037;-74
2021/06/01 01:26:13;;;;;;;9.23;5.18;;;;;;;15.25;100.00;100717.28;4895567;29;20363;-74
2021/06/01 01:29:20;;;;;;;8.05;4.40;;;;;;;15.03;100.00;100723.38;4883097;29;20073;-74
2021/06/01 01:32:18;;;;;;;5.90;4.15;;;;;;;14.99;100.00;100716.50;4882142;29;20383;-74
2021/06/01 01:35:05;;;;;;;13.13;4.65;;;;;;;15.19;100.00;100712.19;4896765;29;20036;-73
2021/06/01 01:37:55;;;;;;;11.77;4.32;;;;;;;15.03;100.00;100713.66;4883000;29;20451;-73
2021/06/01 01:40:45;;;;;;;6.15;3.85;;;;;;;15.38;100.00;100699.25;4882420;29;20123;-74
2021/06/01 01:43:33;;;;;;;9.68;4.10;;;;;;;15.19;100.00;100692.88;4896398;29;20021;-73
2021/06/01 01:49:23;;;;;;;12.57;4.90;;;;;;;15.23;100.00;100691.84;4882446;29;20059;-73
2021/06/01 01:52:09;;;;;;;6.68;4.72;;;;;;;15.44;100.00;100694.59;4894721;29;20523;-74
2021/06/01 01:54:56;;;;;;;10.27;4.13;;;;;;;15.51;100.00;100684.66;4882953;29;20363;-74
2021/06/01 01:57:46;;;;;;;6.30;4.72;;;;;;;15.64;100.00;100697.34;4881694;29;20048;-74
2021/06/01 02:00:32;;;;;;;10.07;4.82;;;;;;;15.43;100.00;100698.13;4882584;29;20112;-74
2021/06/01 02:03:20;;;;;;;12.45;5.07;;;;;;;15.36;100.00;100696.66;4881811;29;20060;-74
2021/06/01 02:06:06;;;;;;;15.57;6.18;;;;;;;15.32;100.00;100702.94;4895004;29;20092;-74
2021/06/01 02:08:52;;;;;;;9.05;5.80;;;;;;;15.18;100.00;100696.44;4894964;29;20029;-74
2021/06/01 02:11:38;;;;;;;9.70;5.90;;;;;;;15.33;100.00;100693.22;4882334;29;20033;-75
2021/06/01 02:14:25;;;;;;;9.05;6.05;;;;;;;15.19;100.00;100703.44;4881968;29;20033;-75
2021/06/01 02:17:10;;;;;;;9.55;6.60;;;;;;;15.22;100.00;100703.34;4881992;29;20025;-75
2021/06/01 03:13:14;;;;;;;8.40;6.43;;;;;;;14.30;100.00;100710.06;5137583;23;20056;-73
2021/06/01 03:16:00;;;;;;;8.77;6.25;;;;;;;14.34;100.00;100702.91;4904847;29;20040;-73
2021/06/01 03:18:46;;;;;;;9.45;5.57;;;;;;;14.52;100.00;100711.06;4919684;29;20032;-73
2021/06/01 03:21:33;;;;;;;9.98;5.90;;;;;;;14.66;100.00;100711.47;4918812;29;20040;-73
2021/06/01 03:24:19;;;;;;;9.07;5.53;;;;;;;14.63;100.00;100706.28;4905092;29;20085;-73
2021/06/01 03:27:05;;;;;;;7.95;5.55;;;;;;;14.30;100.00;100709.19;4917801;29;20095;-73
2021/06/01 03:29:51;;;;;;;8.98;5.50;;;;;;;14.44;100.00;100706.97;4918619;29;20038;-73
2021/06/01 03:32:37;;;;;;;7.88;5.28;;;;;;;14.51;100.00;100697.94;4904837;29;20036;-73
2021/06/01 03:35:24;;;;;;;9.60;5.35;;;;;;;14.59;100.00;100704.66;4918149;29;20035;-73
2021/06/01 03:38:10;;;;;;;5.55;4.60;;;;;;;14.43;100.00;100711.38;4918953;29;20111;-73
2021/06/01 03:40:56;;;;;;;8.70;5.25;;;;;;;14.76;100.00;100704.94;4918468;29;20367;-73
2021/06/01 03:43:42;;;;;;;10.27;4.47;;;;;;;14.24;100.00;100704.97;4918642;29;20024;-73
2021/06/01 03:46:28;;;;;;;5.40;4.53;;;;;;;14.33;100.00;100712.59;4918205;29;20063;-73
2021/06/01 03:49:14;;;;;;;6.35;4.18;;;;;;;14.24;100.00;100715.50;4918444;29;20032;-73
2021/06/01 03:52:00;;;;;;;6.15;4.15;;;;;;;14.40;100.00;100713.25;4917691;29;20040;-73
2021/06/01 03:54:45;;;;;;;8.73;4.53;;;;;;;14.40;100.00;100708.00;4918596;29;20031;-72
2021/06/01 03:57:31;;;;;;;9.13;4.88;;;;;;;14.44;100.00;100710.44;4918267;29;20076;-73
2021/06/01 04:00:20;;;;;;;7.35;4.32;;;;;;;14.52;100.00;100711.06;4918703;29;20028;-73
2021/06/01 04:03:06;;;;;;;5.30;4.18;;;;;;;14.45;100.00;100712.19;4918092;29;20092;-73
2021/06/01 04:05:52;;;;;;;5.25;4.28;;;;;;;14.47;100.00;100709.50;4904804;29;20036;-72
2021/06/01 04:08:39;;;;;;;6.00;4.35;;;;;;;14.78;100.00;100704.91;4917406;29;20040;-73
2021/06/01 04:11:25;;;;;;;5.40;4.05;;;;;;;14.56;100.00;100703.91;4918388;29;20469;-74
2021/06/01 04:14:11;;;;;;;6.50;4.20;;;;;;;14.55;100.00;100699.56;4904553;29;20048;-73
2021/06/01 04:16:56;;;;;;;4.55;4.07;;;;;;;14.62;100.00;100703.69;4918108;29;20032;-73
2021/06/01 04:19:42;;;;;;;6.85;4.47;;;;;;;14.56;100.00;100701.28;4904730;29;20116;-73
2021/06/01 04:22:28;;;;;;;5.75;4.32;;;;;;;14.44;100.00;100709.59;4917774;29;20024;-73
2021/06/01 04:25:14;;;;;;;5.72;4.88;;;;;;;14.52;100.00;100708.41;4917807;29;20036;-73
2021/06/01 04:27:59;;;;;;;4.88;4.38;;;;;;;14.46;100.00;100706.00;4918359;29;20031;-73
2021/06/01 04:30:45;;;;;;;6.05;4.88;;;;;;;14.55;100.00;100707.47;4917218;29;20071;-73
2021/06/01 04:33:32;;;;;;;5.80;4.75;;;;;;;14.82;100.00;100710.03;4917674;29;20024;-74
2021/06/01 04:36:18;;;;;;;6.75;5.25;;;;;;;14.38;100.00;100704.53;4918009;29;20059;-73
2021/06/01 04:39:04;;;;;;;5.22;4.32;;;;;;;14.69;100.00;100707.88;4917359;29;20497;-74
2021/06/01 04:41:50;;;;;;;6.50;4.65;;;;;;;14.90;100.00;100708.91;4904508;29;20035;-74
2021/06/01 04:44:36;;;;;;;6.35;5.10;;;;;;;14.75;100.00;100713.78;4917968;29;20043;-73
2021/06/01 04:47:21;;;;;;;6.30;5.43;;;;;;;14.83;100.00;100706.47;4918524;29;20024;-73
2021/06/01 04:50:08;;;;;;;8.48;5.82;;;;;;;15.02;100.00;100719.03;4938280;29;20100;-73
2021/06/01 04:52:55;;;;;;;5.70;5.10;;;;;;;14.78;100.00;100710.16;4939738;29;20092;-73
2021/06/01 04:55:41;;;;;;;6.32;5.72;;;;;;;15.00;100.00;100718.19;4940603;29;20051;-73
2021/06/01 04:58:27;;;;;;;6.85;5.53;;;;;;;14.63;100.00;100718.63;4924918;29;20024;-74
2021/06/01 05:01:13;;;;;;;7.60;6.25;;;;;;;14.77;100.00;100719.88;4925373;29;20059;-73
2021/06/01 05:03:59;;;;;;;9.20;5.82;;;;;;;14.59;100.00;100717.84;4934813;29;20043;-73
2021/06/01 05:06:44;;;;;;;7.30;6.05;;;;;;;14.46;100.00;100723.59;4930636;29;20478;-73
2021/06/01 05:09:30;;;;;;;7.03;6.32;;;;;;;14.60;100.00;100724.84;4921537;29;20445;-74
2021/06/01 05:12:16;;;;;;;8.57;6.63;;;;;;;14.58;100.00;100725.81;4906754;29;20048;-73
2021/06/01 05:15:02;;;;;;;9.30;5.80;;;;;;;14.53;100.00;100723.34;4920949;29;20047;-72
2021/06/01 05:17:48;;;;;;;7.97;6.18;;;;;;;14.82;100.00;100726.78;4921169;29;20032;-73
2021/06/01 05:20:34;;;;;;;8.20;6.72;;;;;;;14.61;100.00;100728.34;4920810;29;20032;-73
2021/06/01 05:23:20;;;;;;;9.65;5.85;;;;;;;14.71;100.00;100735.91;4907311;29;20024;-74
2021/06/01 05:26:06;;;;;;;6.57;5.72;;;;;;;14.60;100.00;100730.13;4919954;29;20039;-74
2021/06/01 05:28:52;;;;;;;8.13;6.25;;;;;;;14.50;100.00;100728.72;4920479;29;20028;-74
2021/06/01 05:31:54;;;;;;;5.70;5.20;;;;;;;14.45;100.00;100735.06;4920558;29;20078;-73
2021/06/01 05:34:40;;;;;;;5.85;5.05;;;;;;;14.90;100.00;100736.13;4920599;29;20036;-74
2021/06/01 05:37:28;;;;;;;6.85;5.25;;;;;;;14.72;100.00;100737.63;4919542;29;20481;-74
2021/06/01 05:40:14;;;;;;;7.25;5.07;;;;;;;14.71;100.00;100737.69;4920352;29;20055;-73
2021/06/01 05:43:00;;;;;;;6.05;5.32;;;;;;;14.90;100.00;100730.84;4919201;29;20371;-73
2021/06/01 05:45:46;;;;;;;6.45;5.65;;;;;;;14.71;100.00;100721.88;4920320;29;20062;-74
2021/06/01 05:48:31;;;;;;;5.55;4.95;;;;;;;14.53;100.00;100728.63;4906304;29;20468;-74
2021/06/01 05:51:19;;;;;;;6.15;5.50;;;;;;;14.52;100.00;100729.50;4920142;29;20051;-74
2021/06/01 05:54:07;;;;;;;7.18;5.10;;;;;;;14.58;100.00;100737.22;4919979;29;20449;-74
2021/06/01 05:56:53;;;;;;;7.00;5.45;;;;;;;14.42;100.00;100733.38;4919408;29;20051;-74
2021/06/01 05:59:38;;;;;;;5.93;4.72;;;;;;;14.71;100.00;100740.34;4920091;29;20039;-74
2021/06/01 06:02:24;;;;;;;6.03;5.28;;;;;;;14.64;100.00;100736.16;4906453;29;20114;-74
2021/06/01 06:05:11;;;;;;;6.22;4.78;;;;;;;14.52;100.00;100736.56;4920101;29;20039;-74
2021/06/01 06:08:11;;;;;;;5.35;4.85;;;;;;;14.72;100.00;100740.25;4919973;29;20036;-74
2021/06/01 06:10:57;;;;;;;4.55;4.15;;;;;;;14.67;100.00;100731.66;4919104;29;20106;-74
2021/06/01 06:13:42;;;;;;;7.28;4.80;;;;;;;14.82;100.00;100739.97;4918771;29;20132;-74
2021/06/01 06:16:34;;;;;;;6.25;4.28;;;;;;;14.75;100.00;100737.50;4919538;29;20070;-75
2021/06/01 06:19:20;;;;;;;5.90;4.32;;;;;;;14.75;100.00;100737.50;4919378;29;20032;-75
2021/06/01 06:22:06;;;;;;;4.95;4.45;;;;;;;15.20;100.00;100739.47;4906817;29;20031;-74
2021/06/01 06:24:51;;;;;;;5.07;4.50;;;;;;;14.88;100.00;100737.09;4905727;29;20051;-75
2021/06/01 06:27:38;;;;;;;5.88;4.78;;;;;;;14.86;100.00;100736.31;4919594;29;20024;-74
2021/06/01 06:30:24;;;;;;;6.00;4.60;;;;;;;15.11;100.00;100740.66;4919390;29;20032;-74
2021/06/01 06:33:10;;;;;;;6.72;6.03;;;;;;;15.17;100.00;100737.81;4905226;29;20074;-75
2021/06/01 06:35:55;;;;;;;5.45;4.95;;;;;;;15.26;100.00;100742.75;4919279;29;20028;-74
2021/06/01 06:38:45;;;;;;;5.78;5.18;;;;;;;15.55;100.00;100734.66;4905524;29;20055;-75
2021/06/01 06:41:31;;;;;;;5.35;4.15;;;;;;;15.28;100.00;100734.78;4905478;29;20017;-74
2021/06/01 06:44:18;;;;;;;6.05;4.20;;;;;;;15.24;100.00;100744.59;4919184;29;20032;-73
2021/06/01 06:47:18;;;;;;;5.07;3.85;;;;;;;15.36;100.00;100741.53;4905135;29;20461;-74
2021/06/01 06:50:04;;;;;;;6.68;4.60;;;;;;;15.67;100.00;100738.63;4917847;29;20032;-73
2021/06/01 06:52:53;;;;;;;8.52;4.07;;;;;;;15.68;100.00;100735.06;4918736;29;20111;-74
2021/06/01 06:55:39;;;;;;;6.40;4.22;;;;;;;15.57;100.00;100729.31;4918786;29;20028;-74
2021/06/01 06:58:24;;;;;;;7.00;5.97;;;;;;;15.35;100.00;100742.44;4918990;29;20461;-74
2021/06/01 07:01:11;;;;;;;5.10;4.50;;;;;;;15.44;100.00;100738.63;4906031;29;20054;-73
2021/06/01 07:03:58;;;;;;;4.50;4.10;;;;;;;15.48;100.00;100734.94;4904981;29;20441;-74
2021/06/01 07:06:47;;;;;;;3.22;2.92;;;;;;;15.33;100.00;100741.63;4918856;29;20022;-74
2021/06/01 07:09:37;;;;;;;3.30;2.90;;;;;;;15.39;100.00;100741.41;4919038;29;20104;-74
2021/06/01 07:12:23;;;;;;;3.40;3.08;;;;;;;15.89;100.00;100731.59;4898806;29;20049;-75
2021/06/01 07:15:24;;;;;;;3.20;2.60;;;;;;;15.98;100.00;100723.28;4899183;29;20039;-74
2021/06/01 07:18:10;;;;;;;5.45;3.10;;;;;;;16.33;100.00;100728.91;4898446;29;20032;-74
2021/06/01 07:20:59;;;;;;;3.28;2.72;;;;;;;16.64;100.00;100724.09;4900687;29;20024;-74
2021/06/01 07:23:45;;;;;;;2.83;2.35;;;;;;;17.00;100.00;100714.56;4900078;29;20025;-74
2021/06/01 07:26:31;;;;;;;4.03;2.35;;;;;;;16.79;100.00;100719.94;4899009;29;20079;-74
2021/06/01 07:29:19;;;;;;;2.70;2.40;;;;;;;16.77;100.00;100724.44;4899782;29;20121;-76
2021/06/01 07:32:06;;;;;;;2.13;1.92;;;;;;;16.88;100.00;100730.16;4901006;29;20370;-75
2021/06/01 07:34:52;;;;;;;2.58;2.00;;;;;;;16.95;100.00;100726.28;4901346;29;20099;-75
2021/06/01 07:37:39;;;;;;;1.98;1.77;;;;;;;16.83;100.00;100732.09;4900489;29;20378;-75
2021/06/01 07:40:25;;;;;;;2.30;1.98;;;;;;;16.76;100.00;100725.38;4900281;29;20370;-75
2021/06/01 07:43:11;;;;;;;3.45;2.20;;;;;;;17.21;100.00;100733.97;4899643;29;20035;-76
2021/06/01 07:45:57;;;;;;;2.40;1.95;;;;;;;16.39;100.00;100736.59;4899578;29;20028;-75
2021/06/01 07:48:43;;;;;;;3.40;2.30;;;;;;;16.63;100.00;100745.34;4898520;29;20120;-75
2021/06/01 07:51:29;;;;;;;4.50;2.45;;;;;;;16.77;100.00;100743.84;4898614;29;20028;-76
2021/06/01 07:54:15;;;;;;;2.10;1.90;;;;;;;16.69;100.00;100745.06;4898765;29;20079;-74
2021/06/01 07:57:00;;;;;;;3.53;1.60;;;;;;;16.72;100.00;100734.38;4899783;29;20043;-75
2021/06/01 07:59:46;;;;;;;1.75;1.50;;;;;;;16.76;100.00;100744.75;4898590;29;20111;-75
2021/06/01 08:02:32;;;;;;;2.80;1.70;;;;;;;16.58;100.00;100749.94;4899410;29;20023;-75
2021/06/01 08:05:19;;;;;;;2.72;1.70;;;;;;;16.82;100.00;100748.91;4899441;29;20055;-74
2021/06/01 08:08:05;;;;;;;2.53;1.70;;;;;;;16.15;100.00;100752.59;4898966;29;20037;-75
2021/06/01 08:10:54;;;;;;;1.50;1.40;;;;;;;15.64;100.00;100765.16;4899651;29;20032;-75
2021/06/01 08:13:40;;;;;;;2.00;1.80;;;;;;;15.85;100.00;100769.63;4916814;29;20071;-75
2021/06/01 08:16:26;;;;;;;2.53;1.80;;;;;;;16.00;100.00;100766.38;4917010;29;20055;-75
2021/06/01 08:19:19;;;;;;;3.45;2.33;;;;;;;16.03;100.00;100768.94;4918326;29;20035;-76
2021/06/01 08:24:56;;;;;;;1.55;1.45;;;;;;;16.12;100.00;100769.41;4918691;29;20039;-75
2021/06/01 08:27:42;;;;;;;2.80;1.60;;;;;;;15.97;100.00;100777.06;4917734;29;20099;-75
2021/06/01 08:30:30;;;;;;;2.90;1.50;;;;;;;16.02;100.00;100783.03;4918693;29;20051;-75
2021/06/01 08:33:16;;;;;;;2.80;1.95;;;;;;;16.16;100.00;100792.16;4922247;29;20028;-75
2021/06/01 08:36:02;;;;;;;2.20;1.70;;;;;;;15.96;100.00;100799.13;4920710;29;20028;-76
2021/06/01 08:38:51;;;;;;;2.15;1.60;;;;;;;16.22;100.00;100791.94;4924820;29;20040;-75
2021/06/01 08:41:38;;;;;;;3.00;1.77;;;;;;;16.24;100.00;100783.94;4922498;29;20060;-74
2021/06/01 08:44:26;;;;;;;2.47;2.00;;;;;;;16.02;100.00;100796.25;4922151;29;20032;-74
2021/06/01 08:47:12;;;;;;;1.70;1.20;;;;;;;15.74;100.00;100793.78;4941226;29;20038;-75
2021/06/01 08:50:05;;;;;;;1.52;1.40;;;;;;;15.88;100.00;100790.66;4940013;29;20114;-75
2021/06/01 08:52:51;;;;;;;1.95;1.40;;;;;;;15.74;100.00;100796.44;4910420;29;20445;-75
2021/06/01 08:55:37;;;;;;;2.63;1.20;;;;;;;15.81;100.00;100800.59;4925059;29;20047;-75
2021/06/01 08:58:22;;;;;;;1.77;1.25;;;;;;;15.55;100.00;100805.94;4931137;29;20091;-73
2021/06/01 09:01:09;;;;;;;1.20;1.00;;;;;;;15.67;100.00;100809.94;4915933;29;20020;-73
2021/06/01 09:03:58;;;;;;;1.25;1.15;;;;;;;15.65;100.00;100820.56;4921255;29;20024;-74
2021/06/01 09:06:48;;;;;;;2.42;1.05;;;;;;;15.85;100.00;100814.53;4921131;29;20398;-73
2021/06/01 09:12:45;;;;;;;1.30;1.10;;;;;;;15.46;100.00;100819.50;4921227;29;20127;-75
2021/06/01 09:21:50;;;;;;;1.65;1.17;;;;;;;15.82;100.00;100827.84;4920999;29;20051;-75
2021/06/01 09:24:36;;;;;;;2.55;1.02;;;;;;;15.68;100.00;100822.22;4920664;29;20036;-74
2021/06/01 09:27:27;;;;;;;2.08;1.30;;;;;;;15.80;100.00;100819.13;4920864;29;20028;-74
2021/06/01 09:30:33;;;;;;;2.17;1.30;;;;;;;15.39;100.00;100825.06;4919459;29;20039;-74
2021/06/01 09:33:19;;;;;;;2.03;1.10;;;;;;;15.40;100.00;100839.97;4906351;29;20037;-75
2021/06/01 09:36:06;;;;;;;1.70;1.35;;;;;;;15.75;100.00;100834.28;4919054;29;20046;-74
2021/06/01 09:38:52;;;;;;;1.33;1.23;;;;;;;15.73;100.00;100829.06;4920581;29;20122;-74
2021/06/01 09:41:38;;;;;;;1.23;1.00;;;;;;;15.43;100.00;100839.88;4919667;29;20028;-75
2021/06/01 09:44:23;;;;;;;2.08;1.02;;;;;;;15.30;100.00;100833.25;4907027;29;20078;-75
2021/06/01 09:47:09;;;;;;;1.60;1.00;;;;;;;15.61;100.00;100832.16;4918852;29;20056;-75
2021/06/01 09:50:17;;;;;;;1.52;1.30;;;;;;;15.49;100.00;100831.72;4920840;29;20028;-74
2021/06/01 09:53:10;;;;;;;1.73;1.27;;;;;;;15.41;100.00;100842.56;4919830;29;20380;-75
2021/06/01 09:55:57;;;;;;;2.20;1.70;;;;;;;15.58;100.00;100855.16;4920921;29;20126;-75
2021/06/01 09:58:43;;;;;;;1.75;1.45;;;;;;;15.63;100.00;100858.50;4920370;29;20036;-74
2021/06/01 10:01:32;;;;;;;1.77;1.10;;;;;;;15.14;100.00;100850.53;4921027;29;20118;-75
2021/06/01 10:04:23;;;;;;;1.90;1.13;;;;;;;15.01;100.00;100859.75;4906513;29;20043;-74
2021/06/01 10:07:26;;;;;;;2.45;1.00;;;;;;;14.76;100.00;100846.53;4906547;29;20079;-75
2021/06/01 10:10:21;;;;;;;2.95;1.38;;;;;;;15.10;100.00;100867.41;4920123;29;20036;-74
2021/06/01 10:13:10;;;;;;;3.45;1.35;;;;;;;14.90;100.00;100867.19;4900367;29;20044;-75
2021/06/01 10:16:01;;;;;;;1.08;0.90;;;;;;;14.94;100.00;100874.09;4900382;29;20463;-76
2021/06/01 10:18:47;;;;;;;1.25;0.98;;;;;;;14.75;100.00;100863.25;4900783;29;20213;-75
2021/06/01 10:21:33;;;;;;;2.65;1.60;;;;;;;14.99;100.00;100867.72;4900201;29;20095;-74
2021/06/01 10:24:18;;;;;;;1.23;1.02;;;;;;;14.71;100.00;100859.84;4901319;29;20033;-73
2021/06/01 10:27:07;;;;;;;1.10;1.00;;;;;;;15.03;100.00;100871.97;4900779;29;20025;-74
2021/06/01 10:29:54;;;;;;;2.88;1.45;;;;;;;14.71;100.00;100865.13;4899862;29;20036;-74
2021/06/01 10:32:47;;;;;;;2.78;1.73;;;;;;;14.57;100.00;100875.25;4900443;29;20040;-76
2021/06/01 10:35:37;;;;;;;4.65;1.60;;;;;;;14.65;100.00;100878.53;4900133;29;20028;-76
2021/06/01 10:50:37;;;;;;;3.40;2.70;;;;;;;15.07;100.00;100878.03;4900976;29;20028;-75
2021/06/01 10:53:27;;;;;;;1.63;1.40;;;;;;;14.62;100.00;100881.25;4900160;29;20033;-76
2021/06/01 10:56:13;;;;;;;2.63;2.20;;;;;;;14.77;100.00;100871.97;4901504;29;20059;-75
2021/06/01 10:59:06;;;;;;;3.42;1.48;;;;;;;14.86;100.00;100873.47;4899749;29;20423;-75
2021/06/01 11:02:10;;;;;;;3.67;1.70;;;;;;;15.55;100.00;100884.34;4901039;29;20028;-75
2021/06/01 11:05:17;;;;;;;1.40;1.30;;;;;;;15.28;100.00;100869.41;4899142;29;20056;-74
2021/06/01 11:08:13;;;;;;;1.90;1.15;;;;;;;15.54;100.00;100870.25;4899558;29;20047;-75
2021/06/01 11:10:59;;;;;;;1.90;1.45;;;;;;;16.01;100.00;100865.88;4900698;29;20411;-75
2021/06/01 11:13:45;;;;;;;2.10;1.25;;;;;;;16.12;100.00;100861.91;4899625;29;20041;-76
2021/06/01 11:16:53;;;;;;;2.38;1.00;;;;;;;15.55;100.00;100852.63;4899303;29;20036;-75
2021/06/01 11:19:57;;;;;;;1.10;0.95;;;;;;;15.62;100.00;100843.56;4899705;29;20024;-76
2021/06/01 11:22:56;;;;;;;0.98;0.82;;;;;;;15.44;100.00;100857.44;4898662;29;20032;-75
2021/06/01 11:35:21;;;;;;;1.40;1.10;;;;;;;15.39;100.00;100862.00;4899948;29;20064;-75
2021/06/01 11:38:11;;;;;;;1.08;0.80;;;;;;;14.71;100.00;100857.22;4899291;29;20037;-74
2021/06/01 11:43:52;;;;;;;2.33;1.00;;;;;;;15.03;100.00;100871.16;4900515;29;20112;-74
2021/06/01 11:46:44;;;;;;;1.33;1.20;;;;;;;15.11;100.00;100880.50;4899920;29;20080;-75
2021/06/01 11:52:34;;;;;;;3.63;1.15;;;;;;;14.76;100.00;100860.56;4899164;29;20107;-75
2021/06/01 11:55:19;;;;;;;1.35;0.88;;;;;;;14.44;100.00;100855.44;4899074;29;20111;-75
2021/06/01 12:14:12;;;;;;;6.50;1.10;;;;;;;15.56;100.00;100872.84;4885249;29;20150;-75
2021/06/01 12:17:11;;;;;;;2.35;1.30;;;;;;;15.68;100.00;100875.94;4884553;29;20029;-75
2021/06/01 12:20:06;;;;;;;4.25;1.48;;;;;;;15.66;100.00;100888.31;4884722;29;20029;-74
2021/06/01 12:22:52;;;;;;;1.52;1.25;;;;;;;15.51;100.00;100875.63;4884702;29;20498;-74
2021/06/01 12:25:38;;;;;;;1.55;1.30;;;;;;;15.13;100.00;100880.47;4884860;29;20056;-74
2021/06/01 12:31:30;;;;;;;3.15;1.58;;;;;;;15.10;100.00;100876.16;4884648;29;20483;-73
2021/06/01 12:34:21;;;;;;;2.97;1.58;;;;;;;14.76;100.00;100868.47;4883779;29;20036;-75
2021/06/01 13:20:06;;;;;;;2.78;1.92;;;;;;;15.93;100.00;100924.31;4884553;29;20029;-76
2021/06/01 13:38:39;;;;;;;5.93;1.88;;;;;;;14.64;100.00;100928.66;4897063;29;20029;-74
2021/06/01 13:47:45;;;;;;;7.45;1.95;;;;;;;14.63;100.00;100930.44;4884085;29;20025;-75
2021/06/01 13:59:13;;;;;;;4.72;2.00;;;;;;;14.67;100.00;100958.44;4883268;29;20343;-75
2021/06/01 14:29:54;;;;;;;6.45;2.22;;;;;;;15.15;100.00;100981.59;4900903;29;20040;-74
2021/06/01 14:39:21;;;;;;;2.97;2.53;;;;;;;15.10;100.00;100980.88;4900847;29;20029;-75
2021/06/01 16:13:45;;;;;;;3.55;1.95;;;;;;;15.03;100.00;101034.75;4918002;29;20048;-74
2021/06/01 16:22:51;;;;;;;5.70;2.45;;;;;;;14.36;100.00;101046.38;4917787;29;20024;-74
2021/06/01 16:44:23;;;;;;;2.40;2.03;;;;;;;14.16;100.00;101057.41;4917615;29;20032;-75
2021/06/01 17:05:51;;;;;;;3.10;2.53;;;;;;;14.96;100.00;101078.06;4921402;29;20031;-75
2021/06/01 17:11:39;;;;;;;2.60;2.20;;;;;;;15.34;100.00;101077.78;4920925;29;20051;-74
2021/06/01 17:14:26;;;;;;;3.47;2.20;;;;;;;15.20;100.00;101080.84;4908485;29;20039;-75
2021/06/01 17:17:15;;;;;;;3.00;2.50;;;;;;;15.07;100.00;101083.88;4907009;29;20028;-74
2021/06/01 17:20:17;;;;;;;4.47;2.42;;;;;;;15.05;100.00;101089.19;4920972;29;20036;-74
2021/06/01 17:35:04;;;;;;;4.50;2.28;;;;;;;15.00;100.00;101109.59;4920610;29;20047;-75
2021/06/01 17:37:50;;;;;;;2.30;2.10;;;;;;;15.40;100.00;101109.28;4906867;29;20032;-74
2021/06/01 17:40:38;;;;;;;4.75;2.30;;;;;;;15.20;100.00;101115.16;4920980;29;20469;-75
2021/06/01 17:43:28;;;;;;;3.80;2.75;;;;;;;15.13;100.00;101118.00;4921006;29;20028;-74
2021/06/01 17:46:16;;;;;;;5.07;3.00;;;;;;;14.85;100.00;101117.94;4920796;29;20369;-75
2021/06/01 17:49:04;;;;;;;4.72;3.08;;;;;;;15.23;100.00;101128.22;4907364;29;20095;-74
2021/06/01 17:51:54;;;;;;;4.03;3.10;;;;;;;14.89;100.00;101130.13;4920055;29;20028;-75
2021/06/01 17:54:44;;;;;;;7.25;3.20;;;;;;;15.04;100.00;101129.72;4922094;29;20051;-74
2021/06/01 17:57:30;;;;;;;4.35;3.40;;;;;;;14.91;100.00;101125.66;4931935;29;20008;-74
2021/06/01 18:00:17;;;;;;;4.32;3.92;;;;;;;15.01;100.00;101129.78;4940032;29;20032;-75
2021/06/01 18:03:03;;;;;;;6.85;4.35;;;;;;;14.81;100.00;101126.84;4925584;29;20119;-75
2021/06/01 18:05:52;;;;;;;5.78;3.80;;;;;;;14.64;100.00;101137.84;4923407;29;20059;-75
2021/06/01 18:08:44;;;;;;;7.38;4.03;;;;;;;14.51;100.00;101140.91;4926059;29;20103;-75
2021/06/01 19:26:10;;;;;;;11.88;8.90;;;;;;;14.57;100.00;101207.50;4919274;29;20065;-75
2021/06/01 19:28:54;;;;;;;10.25;8.10;;;;;;;14.56;100.00;101208.41;4918888;29;20032;-75
2021/06/01 19:50:15;;;;;;;8.70;6.57;;;;;;;14.18;100.00;101240.09;4918958;29;20221;-75
2021/06/01 19:53:01;;;;;;;10.98;5.82;;;;;;;13.90;100.00;101243.38;4904219;29;20366;-75
2021/06/01 19:55:48;;;;;;;6.65;4.60;;;;;;;13.76;100.00;101246.34;4904440;29;20410;-76
2021/06/01 19:58:34;;;;;;;6.07;4.75;;;;;;;14.24;100.00;101242.59;4918043;29;20472;-76
2021/06/01 20:01:21;;;;;;;5.72;4.40;;;;;;;14.21;100.00;101241.81;4919022;29;20040;-76
2021/06/01 20:04:06;;;;;;;7.07;4.15;;;;;;;14.14;100.00;101250.72;4917320;29;20042;-75
2021/06/01 20:06:52;;;;;;;5.30;3.40;;;;;;;13.62;100.00;101240.50;4918668;29;20114;-75
2021/06/01 20:09:38;;;;;;;3.58;3.15;;;;;;;13.79;100.00;101248.06;4918073;29;20040;-74
2021/06/01 20:12:26;;;;;;;4.72;2.92;;;;;;;13.85;100.00;101246.16;4917677;29;20052;-75
2021/06/01 20:15:14;;;;;;;4.13;2.75;;;;;;;14.21;100.00;101249.72;4917863;29;20044;-75
2021/06/01 20:18:04;;;;;;;4.10;2.70;;;;;;;13.93;100.00;101252.09;4917866;29;20347;-75
2021/06/01 20:20:53;;;;;;;3.00;2.20;;;;;;;13.46;100.00;101257.53;4918494;29;20399;-75
2021/06/01 20:23:42;;;;;;;4.85;2.47;;;;;;;13.69;100.00;101259.69;4918179;29;20399;-74
2021/06/01 20:26:30;;;;;;;3.33;2.22;;;;;;;13.77;100.00;101260.38;4920600;29;20028;-75
2021/06/01 20:29:21;;;;;;;5.30;2.20;;;;;;;13.83;100.00;101266.38;4921843;29;20032;-75
2021/06/01 20:35:13;;;;;;;3.15;2.00;;;;;;;13.56;100.00;101261.72;4922065;29;20178;-75
2021/06/01 20:38:00;;;;;;;3.15;1.88;;;;;;;13.96;100.00;101267.84;4921820;29;20039;-74
2021/06/01 20:40:46;;;;;;;6.10;2.25;;;;;;;13.51;100.00;101254.81;4921541;29;20032;-74
2021/06/01 20:43:32;;;;;;;2.40;2.20;;;;;;;13.53;100.00;101256.50;4921874;29;20021;-74
2021/06/01 20:46:18;;;;;;;2.88;2.20;;;;;;;13.84;100.00;101262.88;4921546;29;20497;-74